Aviation Digital Data Service (ADDS)

Output produced by METARs form (0622 UTC 26 November 2014)
found at http://www.aviationweather.gov/adds/metars/
 
KBOS 260536Z 2606/2712 25009KT P6SM SCT130 
     FM261200 34005KT 6SM -RA OVC080 
     FM261500 36007KT 5SM -RA OVC025 
     FM261800 03009KT 1SM RASN OVC008 
     FM262100 03013G27KT 1SM RASN OVC008 
     FM270400 36017G27KT 2SM -SNRA OVC008 
     FM270600 34017G26KT P6SM OVC015 
     FM270900 33014G21KT P6SM BKN040